Malakai Sauturaga

Olheiro - Nasinu
3 Dez 2028
Domingo
Processo

Personalidade

Adaptabilidade (20) Ambição (15) Controvérsia (11) Lealdade (11) Pressão (3) Profissionalismo (18) Espírito Esportivo (15) Temperamento (18)

Perfil

Estilo de Treinamento Democrático
Licença Continental A
Determinação 3
Gestão de Pessoas 5
Motivação 4
Disciplina 2
Satisfação no Trabalho
100%
Fadiga
0%
Função Olheiro
Salário 23.0K p/s
Contrato 14.03.2029

Desempenho

Comportamento Bom
Eficácia do Treinamento
25%
Desenvolvimento do Jogador
10%
Prevenção de Lesões
20%
Implementação Tática
5%

Eventos Recentes

Avaliou um jogador agora
Avaliou um jogador agora
Avaliou um jogador agora
Avaliou um jogador agora
Avaliou um jogador agora
Avaliou um jogador agora
Avaliou um jogador agora
Avaliou um jogador agora

Monitorando agora

343
Jogador Clube Status Habilidade Confiança Observado Última observação Último voto
Lebogang Mswane Hapoel Beer Sheva Ativo 71 / 93 40% 5 02.12.2028 -
Marco Garbett Hawke's Bay United Ativo 62 / 68 40% 6 02.12.2028 -
Hanif Sjahbandi Persib Ativo 86 / 83 40% 8 02.12.2028 -
Davel Damen Akzhaiyk Ativo 68 / 69 40% 5 02.12.2028 -
Santino Escolme Auckland City Ativo 66 / 74 40% 2 02.12.2028 -
Owen Kirwan Waitakere United Ativo 75 / 79 40% 2 02.12.2028 -
Michael Barbarouses Hawke's Bay United Ativo 70 / 82 40% 3 02.12.2028 -
Bernard Bukari Macarthur FC Ativo 67 / 62 40% 1 02.12.2028 -
Tim Nelson WaiBOP United Ativo 79 / 90 40% 2 01.12.2028 -
Satrio Azhar Aktobe Ativo 77 / 81 40% 1 01.12.2028 -
Edo Febriansyah Dewa United Ativo 68 / 95 40% 10 30.11.2028 -
Vlatko Stojanovski Mashal Ativo 99 / 82 40% 6 30.11.2028 -
Diyorbek Haliyev Shortan Ativo 66 / 88 40% 4 30.11.2028 -
William Walker Hawke's Bay United Ativo 91 / 101 40% 2 30.11.2028 -
Sardor Tukhtasinov Obod Ativo 91 / 73 40% 2 29.11.2028 -
Reuben Juma Dewa United Ativo 78 / 51 40% 1 29.11.2028 -
Dias Orynbasar Atyrau Ativo 86 / 79 40% 8 28.11.2028 -
McKeal Abdullah Zhetysu Ativo 77 / 70 40% 7 28.11.2028 -
Deklan Van Hattum Waitakere United Ativo 71 / 94 40% 4 28.11.2028 -
Dejan Račić Bhayangkara Presisi Ativo 104 / 106 40% 17 28.11.2028 -
Tommy Wood Hawke's Bay United Ativo 86 / 85 40% 4 28.11.2028 -
James Stamatelopoulos WaiBOP United Ativo 99 / 89 40% 4 28.11.2028 -
Junior Mpanza Arema Ativo 82 / 62 40% 6 27.11.2028 -
Neemish Prasad Rewa Ativo 58 / 58 40% 4 27.11.2028 -
Dhayfallah Kadri Persib Ativo 85 / 85 40% 1 27.11.2028 -
Yamato Naito Ventforet Kofu Ativo 84 / 80 40% 27 26.11.2028 -
Wahyudi Hamisi Persijap Ativo 68 / 78 40% 26 26.11.2028 -
Robi Darwis PSBS Biak Ativo 77 / 64 40% 2 26.11.2028 -
Dylan Tevreden Gamba Osaka Ativo 92 / 110 40% 1 26.11.2028 -
Owen Lockyer Waitakere United Ativo 80 / 78 40% 1 26.11.2028 -
Make Aldo Maulidino PSIM Ativo 69 / 77 40% 22 25.11.2028 -
Sairusi Nalaubu Lautoka Ativo 76 / 83 40% 35 25.11.2028 -
Umid Urunov Obod Ativo 72 / 71 40% 5 25.11.2028 -
Saian Mūqanov Okzhetpes Ativo 71 / 93 40% 12 25.11.2028 -
Rico Browne Jubilo Iwata Ativo 99 / 116 40% 7 25.11.2028 -
Amir Hasanov Obod Ativo 49 / 58 40% 2 25.11.2028 -
Richard Monday Ubong Vissel Kobe Ativo 84 / 103 40% 1 25.11.2028 -
Jake Boxall Southern United Ativo 47 / 66 40% 1 25.11.2028 -
Nur Diansyah Persik Ativo 91 / 73 40% 5 24.11.2028 -
Isaac Frimpong Sanfrecce Hiroshima Ativo 72 / 67 40% 2 24.11.2028 -
James Durrington Brisbane Roar Ativo 102 / 102 40% 2 24.11.2028 -
Fidel Origa Ba Ativo 104 / 94 40% 8 24.11.2028 -
Awan Setho Bhayangkara Presisi Ativo 68 / 99 40% 2 24.11.2028 -
Yoga Adiatama Persik Ativo 86 / 77 40% 6 23.11.2028 -
Khaled Tawhid Bnei Yehuda Ativo 87 / 96 40% 1 23.11.2028 -
Simione Nabenu Suva Ativo 72 / 75 40% 15 22.11.2028 -
Yacob Sayuri Maluku Utara United Ativo 92 / 78 40% 23 22.11.2028 -
Bobomurod Bozorov Qizilqum Ativo 76 / 66 40% 11 22.11.2028 -
Mikheil Basheleishvili Bukhara Ativo 92 / 96 40% 2 22.11.2028 -
Al-Zahri Atyrau Ativo 62 / 63 40% 16 21.11.2028 -
Israel Monga Adelaide United Ativo 97 / 91 40% 14 21.11.2028 -
Abdulganeey Teslim Maluku Utara United Ativo 63 / 55 40% 6 21.11.2028 -
Seth Clark Sydney FC Ativo 92 / 96 40% 8 20.11.2028 -
Takumi Yasuno Vegalta Sendai Ativo 59 / 89 40% 8 20.11.2028 -
Abdurahmon Komilov Andijon Ativo 93 / 86 40% 8 20.11.2028 -
Muhammad Iqbal PSIM Ativo 68 / 62 40% 3 20.11.2028 -
Ori Azulay Hapoel Raanana Ativo 60 / 57 40% 2 20.11.2028 -
Barrie Limoki Nadroga Ativo 72 / 63 40% 16 19.11.2028 -
G'anisher Qodirov Shortan Ativo 82 / 102 40% 24 19.11.2028 -
Raheem Nugraha Ba Ativo 75 / 66 40% 9 19.11.2028 -
Bahodir Halilov Nasaf Ativo 86 / 70 40% 8 19.11.2028 -
Reuben Otieno Neftchi Ativo 89 / 81 40% 1 19.11.2028 -
Cyrus Margono Persija Ativo 72 / 88 40% 1 19.11.2028 -
Saidu Lawan Dewa United Ativo 81 / 59 40% 1 18.11.2028 -
Noah Kirwan Hawke's Bay United Ativo 73 / 83 40% 1 18.11.2028 -
Adam Bell Auckland City Ativo 84 / 90 40% 7 17.11.2028 -
Septian Bagaskara PSM Ativo 86 / 69 40% 10 17.11.2028 -
Fabby Clark Metallurg Ativo 102 / 92 40% 9 17.11.2028 -
Muhammed Kabiru Ordabasy Ativo 86 / 106 40% 1 17.11.2028 -
Humoyunshoh Sayyotov Qizilqum Ativo 99 / 101 40% 1 17.11.2028 -
Winston Sutton Southern United Ativo 91 / 83 40% 1 17.11.2028 -
José Meza Bhayangkara Presisi Ativo 72 / 81 40% 8 16.11.2028 -
Kendry Domingo Canterbury United Ativo 68 / 88 40% 4 16.11.2028 -
Riley Foxe Perth Glory Ativo 104 / 95 40% 15 15.11.2028 -
Jens Raven Bali United Ativo 72 / 72 40% 10 15.11.2028 -
Iowane Matanisiga Labasa Ativo 62 / 67 40% 10 15.11.2028 -
Fortune Omoto Semen Padang Ativo 66 / 62 40% 10 15.11.2028 -
Tuiba Batiratu Nadi Ativo 59 / 46 40% 5 12.11.2028 -
Tomás Leuzzi Vegalta Sendai Ativo 89 / 109 40% 2 12.11.2028 -
Zakhar Porokh Okzhetpes Ativo 85 / 99 40% 2 11.11.2028 -
Wahyu Agong Semen Padang Ativo 81 / 78 40% 4 10.11.2028 -
James Bell Canterbury United Ativo 89 / 85 40% 2 10.11.2028 -
Fareed Sadat Bhayangkara Presisi Ativo 91 / 93 40% 16 08.11.2028 -
Riyatno Abiyoso PSIM Ativo 69 / 85 40% 4 07.11.2028 -
Ricki Ariansyah Semen Padang Ativo 77 / 84 40% 3 07.11.2028 -
Islambek Kuat Akzhaiyk Ativo 64 / 76 40% 6 06.11.2028 -
Anthony Didulica Perth Glory Ativo 101 / 101 40% 11 06.11.2028 -
Abdulmajid Usman Arema Ativo 64 / 84 40% 3 06.11.2028 -
James Reid WaiBOP United Ativo 84 / 87 40% 2 05.11.2028 -
Aporosa Yada Labasa Ativo 75 / 69 40% 20 04.11.2028 -
Fredyan Wahyu Maluku Utara United Ativo 85 / 60 40% 4 04.11.2028 -
Ntisikelelo Mbele Ba Ativo 72 / 82 40% 2 03.11.2028 -
Yusuf Meilana Persik Ativo 84 / 78 40% 4 03.11.2028 -
Nabil Begg Ba Ativo 66 / 54 40% 15 02.11.2028 -
Joe Van Hattum Hawke's Bay United Ativo 95 / 94 40% 1 02.11.2028 -
Gavriil Chizhov Akzhaiyk Ativo 63 / 72 40% 11 01.11.2028 -
Fabien Adikiny Okzhetpes Ativo 70 / 93 40% 5 01.11.2028 -
Martín Hiriart Maccabi Petach Tikva Ativo 59 / 79 40% 1 01.11.2028 -
James Lockyer Hawke's Bay United Ativo 77 / 85 40% 6 31.10.2028 -
Viktor Ziabko Okzhetpes Ativo 67 / 59 40% 5 31.10.2028 -
Amadou Diallo Vegalta Sendai Ativo 86 / 78 40% 1 29.10.2028 -
Bekmurodjon Abduraimjonov Zhetysu Ativo 70 / 60 40% 2 28.10.2028 -
Quvonchbek Abrayev Lokomotiv Ativo 105 / 101 40% 3 27.10.2028 -
Og'abek Asadov Shortan Ativo 55 / 74 40% 1 27.10.2028 -
Cristian Lobo Kashiwa Reysol Ativo 107 / 114 40% 1 27.10.2028 -
Dimas Drajad Persib Ativo 78 / 74 40% 8 25.10.2028 -
Chinanu Victor Rewa Ativo 80 / 85 40% 20 23.10.2028 -
Anvar Murodov Metallurg Ativo 88 / 94 40% 5 23.10.2028 -
Ädilkhan Taňzharyqov Tobol Ativo 88 / 102 40% 7 21.10.2028 -
Sūltan Shymyrkhan Shakhter Ativo 66 / 91 40% 8 20.10.2028 -
Jack Wale Navua Ativo 67 / 57 40% 3 20.10.2028 -
Oliver Evans Perth Glory Ativo 91 / 105 40% 5 20.10.2028 -
Noah Kirwan Hawke's Bay United Ativo 71 / 70 40% 10 19.10.2028 -
Shivam Naidu Lautoka Ativo 75 / 62 40% 6 19.10.2028 -
Kieran Craig Central Coast Mariners Ativo 77 / 86 40% 4 19.10.2028 -
Farruhjon Qodirov Bukhara Ativo 78 / 82 40% 10 18.10.2028 -
Isac Galván Omiya Ardija Ativo 64 / 61 40% 1 16.10.2028 -
Alex Sutton Hawke's Bay United Ativo 108 / 89 40% 1 15.10.2028 -
Theo Numberi Dewa United Ativo 73 / 54 40% 13 13.10.2028 -
Kauã Rodrigo Macarthur FC Ativo 88 / 92 40% 5 13.10.2028 -
Austin Ayoubi Central Coast Mariners Ativo 114 / 101 40% 1 13.10.2028 -
Raka Cahyana PSIM Ativo 52 / 74 40% 15 12.10.2028 -
Noah Wood Canterbury United Ativo 72 / 86 40% 8 12.10.2028 -
Will McKay Macarthur FC Ativo 81 / 85 40% 3 12.10.2028 -
Waleed Ayyash Metallurg Ativo 97 / 91 40% 2 12.10.2028 -
Sardorbek Hoshimov Sogdiana Ativo 99 / 82 40% 2 12.10.2028 -
Siyabonga Mkhize Avispa Fukuoka Ativo 77 / 91 40% 2 11.10.2028 -
Yuda Editya Madura United Ativo 83 / 91 40% 11 10.10.2028 -
Jai Just Hawke's Bay United Ativo 98 / 94 40% 1 09.10.2028 -
Michael Sutton Southern United Ativo 75 / 85 40% 3 08.10.2028 -
Stefan McCowatt Hawke's Bay United Ativo 74 / 90 40% 8 07.10.2028 -
Leon Kofana Rewa Ativo 61 / 76 40% 15 05.10.2028 -
Rizky Dwi Febrianto Bali United Ativo 89 / 59 40% 3 05.10.2028 -
Muhannad Barah Aktobe Ativo 71 / 86 40% 1 04.10.2028 -
Ravikash Krishna Tailevu Naitasiri Ativo 66 / 66 40% 3 02.10.2028 -
Matlahatsi Mampane Lautoka Ativo 73 / 103 40% 15 30.09.2028 -
Ryan Nelson WaiBOP United Ativo 91 / 101 40% 2 30.09.2028 -
Merei Zhambyl Taraz Ativo 84 / 97 40% 1 30.09.2028 -
Dane Barbarouses Southern United Ativo 89 / 81 40% 6 29.09.2028 -
Ben Mewett Western Sydney Wanderers Ativo 95 / 93 40% 7 28.09.2028 -
Steward Toata Nadroga Ativo 52 / 53 40% 3 26.09.2028 -
Matt Garbett Southern United Ativo 76 / 91 40% 1 26.09.2028 -
Haruna Attah AGMK Ativo 101 / 74 40% 6 25.09.2028 -
Kosta Bell Southern United Ativo 64 / 84 40% 10 24.09.2028 -
Tim Lewis Canterbury United Ativo 75 / 85 40% 6 22.09.2028 -
Daniel Atlan Maccabi Netanya Ativo 88 / 95 40% 5 22.09.2028 -
Bill Garbett Southern United Ativo 56 / 63 40% 1 21.09.2028 -
Ahmad Alchoir Persita Ativo 65 / 66 40% 1 21.09.2028 -
Thabelo Tshikweta Auckland FC Ativo 70 / 86 40% 1 19.09.2028 -
Tom Rostovsky Hapoel Raanana Ativo 77 / 91 40% 3 17.09.2028 -
Yoqubjon Qodirov WaiBOP United Ativo 67 / 69 40% 3 17.09.2028 -
Marco Nelson Canterbury United Ativo 70 / 77 40% 2 16.09.2028 -
Davis Morwaswi Semen Padang Ativo 85 / 98 40% 3 14.09.2028 -
Marko Živanović Akzhaiyk Ativo 59 / 71 40% 4 12.09.2028 -
Kayne Razmovski Rewa Ativo 67 / 75 40% 16 08.09.2028 -
Gideon Asante Yeboah AGMK Ativo 70 / 90 40% 1 08.09.2028 -
Elvis Osok AGMK Ativo 62 / 84 40% 1 08.09.2028 -
Ben van Dorssen Ba Ativo 59 / 55 40% 1 08.09.2028 -
Sho Sannomiya Taraz Ativo 106 / 82 40% 1 07.09.2028 -
Dendy Sulistyawan Bhayangkara Presisi Ativo 81 / 71 40% 7 06.09.2028 -
Rafael Andrade Rewa Ativo 71 / 84 40% 14 05.09.2028 -
Sergio Villalpando Kawasaki Frontale Ativo 80 / 78 40% 1 03.09.2028 -
Cameron Kirwan Waitakere United Ativo 80 / 77 40% 5 02.09.2028 -
Samuel Navoce Labasa Ativo 46 / 58 40% 2 02.09.2028 -
Maxim Orazov Akzhaiyk Ativo 70 / 53 40% 2 30.08.2028 -
Ariel Gueta Bnei Yehuda Ativo 61 / 85 40% 1 30.08.2028 -
Ilhamsyah Madura United Ativo 73 / 88 40% 3 29.08.2028 -
Isaac Lee Hapoel Raanana Ativo 88 / 87 40% 3 26.08.2028 -
Septian David Maluku Utara United Ativo 93 / 64 40% 4 24.08.2028 -
Bagas Adi Nugroho Bali United Ativo 87 / 80 40% 1 23.08.2028 -
Muhammad Toha Persijap Ativo 67 / 81 40% 1 23.08.2028 -
Idris Bashir Sydney FC Ativo 74 / 84 40% 1 22.08.2028 -
Reva Adi Utama PSIM Ativo 59 / 79 40% 5 21.08.2028 -
Teguh Trisnanda Borneo Ativo 66 / 73 40% 4 21.08.2028 -
Success Makanjuola Adelaide United Ativo 102 / 97 40% 9 20.08.2028 -
Samuel Gwijangge PSBS Biak Ativo 48 / 58 40% 2 15.08.2028 -
Teuku Ichsan Bhayangkara Presisi Ativo 66 / 81 40% 1 13.08.2028 -
Abdul Rahman PSM Ativo 76 / 50 40% 13 12.08.2028 -
Akeimi Ralulu Labasa Ativo 52 / 56 40% 5 10.08.2028 -
Patrick Joseph Ba Ativo 53 / 81 40% 8 07.08.2028 -
Abidemi Alli Melbourne City Ativo 86 / 97 40% 3 07.08.2028 -
Ahmat Adoum PSIM Ativo 66 / 83 40% 1 06.08.2028 -
Isiaq Kamaideen Bnei Sakhnin Ativo 83 / 94 40% 1 05.08.2028 -
Rikiya Uehara Jubilo Iwata Ativo 123 / 116 40% 2 04.08.2028 -
Isroiljon Tursunboyev Metallurg Ativo 59 / 86 40% 5 02.08.2028 -
Deri Corfe PSIM Ativo 75 / 76 40% 1 02.08.2028 -
Diesel Herrington Central Coast Mariners Ativo 102 / 107 40% 2 01.08.2028 -
Raymond Matlamela Rewa Ativo 70 / 88 40% 8 31.07.2028 -
Nūraidar Äskerbek Taraz Ativo 68 / 61 40% 3 26.07.2028 -
Vishant Reddy Nadi Ativo 63 / 45 40% 1 26.07.2028 -
Enock Asubonteng Western Sydney Wanderers Ativo 95 / 86 40% 1 23.07.2028 -
Rosyad Setiawan Semen Padang Ativo 61 / 77 40% 7 22.07.2028 -
Dennis Munyovi Bunyodkor Ativo 90 / 88 40% 2 21.07.2028 -
Diego Latorre Sagan Tosu Ativo 78 / 105 40% 2 20.07.2028 -
Jonathan Mairiga Bunyodkor Ativo 68 / 92 40% 2 19.07.2028 -
Jayden Smith Wellington Phoenix Ativo 91 / 107 40% 7 18.07.2028 -
Joel Bertolissio Newcastle Jets Ativo 85 / 92 40% 12 17.07.2028 -
Diogo Brito Persijap Ativo 68 / 91 40% 3 16.07.2028 -
Dyllan Bustamante Omiya Ardija Ativo 64 / 77 40% 3 09.07.2028 -
Marco Garbett Southern United Ativo 63 / 70 40% 1 08.07.2028 -
Talgat Nurgaliev Akzhaiyk Ativo 93 / 74 40% 3 04.07.2028 -
Christian Gray Auckland City Ativo 102 / 95 40% 4 03.07.2028 -
Josua Raqamu Suva Ativo 61 / 50 51% 1 03.07.2028 -
Arian Pardo Adelaide United Ativo 99 / 107 40% 2 02.07.2028 -
Sikeli Tuiloma Tailevu Naitasiri Ativo 49 / 43 40% 1 01.07.2028 -
Sani Rizki PSBS Biak Ativo 65 / 93 40% 2 28.06.2028 -
Noah Lockyer Waitakere United Ativo 56 / 61 40% 1 27.06.2028 -
Noah McCann Central Coast Mariners Ativo 87 / 77 40% 8 26.06.2028 -
Khaled Kamal Ba Ativo 76 / 90 40% 19 21.06.2028 -
Felipe Fuentes Bnei Yehuda Ativo 89 / 75 40% 3 21.06.2028 -
Siyabonga Hlengwa Navua Ativo 77 / 69 40% 12 20.06.2028 -
Josaia Sela Lautoka Ativo 55 / 46 40% 3 13.06.2028 -
Oliver Middleton Auckland FC Ativo 98 / 86 40% 1 11.06.2028 -
Abongwe Newman Lautoka Ativo 73 / 71 40% 4 08.06.2028 -
Mohammad Khanafi PSM Ativo 58 / 60 40% 3 04.06.2028 -
Samandar Ochilov Mashal Ativo 76 / 66 40% 1 02.06.2028 -
Aji Kusuma Madura United Ativo 82 / 95 40% 4 31.05.2028 -
Paris Domfeh Auckland City Ativo 78 / 79 40% 7 30.05.2028 -
Ben van Dorssen Ba Perdido 66 / 52 40% 2 30.05.2028 -
Miraziz Mahamadaliyev Andijon Ativo 63 / 81 40% 8 29.05.2028 -
O'ktamjon Abdumalikov Kokand 1912 Ativo 73 / 68 40% 8 28.05.2028 -
Liam Bonetig Melbourne City Ativo 88 / 78 40% 1 28.05.2028 -
Joshua Inserra Melbourne Victory Ativo 95 / 99 40% 10 23.05.2028 -
Khayalethu Mzimela Persebaya Ativo 81 / 67 40% 1 21.05.2028 -
Matías Nicosia Central Coast Mariners Ativo 87 / 84 40% 5 19.05.2028 -
Ryan Kurnia Bhayangkara Presisi Ativo 66 / 65 40% 15 16.05.2028 -
Luke Vickery Macarthur FC Ativo 81 / 107 40% 25 12.05.2028 -
Alex Nelson Navbahor Ativo 61 / 58 40% 2 10.05.2028 -
Yehonatan Segev Maccabi Petach Tikva Rejeitado 85 / 87 40% 1 09.05.2028 -
Wasi Ngala Zhetysu Ativo 53 / 79 40% 2 07.05.2028 -
Koko Araya Persebaya Ativo 78 / 89 40% 1 07.05.2028 -
Ellis Spikner Hapoel Acre Ativo 68 / 71 40% 6 02.05.2028 -
Marcel Vergara Sydney FC Ativo 80 / 83 40% 1 30.04.2028 -
Favio Funes Western Sydney Wanderers Ativo 91 / 88 40% 2 29.04.2028 -
Tzuri Zeituni Maccabi Netanya Ativo 72 / 89 40% 3 29.04.2028 -
Tomer Darzi Beitar Jerusalem Ativo 51 / 57 40% 3 29.04.2028 -
Feyzo Kasumović Adelaide United Ativo 89 / 102 40% 2 29.04.2028 -
Víctor Barona Melbourne City Ativo 90 / 87 40% 3 27.04.2028 -
Bill Singh Bnei Yehuda Ativo 65 / 62 40% 2 27.04.2028 -
Britton Fischer Albirex Niigata Ativo 78 / 97 40% 9 24.04.2028 -
Tomás Aguirre Omiya Ardija Ativo 81 / 82 40% 1 24.04.2028 -
Albert Nurullayev Bukhara Ativo 79 / 61 40% 4 23.04.2028 -
Wataru Kamijo Sydney FC Ativo 86 / 82 40% 8 21.04.2028 -
Etonia Dogalau Ba Ativo 58 / 82 40% 12 16.04.2028 -
Roy Buganim Hapoel Kfar Saba Ativo 71 / 98 40% 5 15.04.2028 -
Lyle Chatburn Auckland City Ativo 72 / 82 40% 4 14.04.2028 -
Hokky Caraka Dewa United Ativo 59 / 61 40% 2 14.04.2028 -
Sali Boubakary Li Central Coast Mariners Ativo 100 / 89 40% 1 05.04.2028 -
Alex Guaricuyu Kawasaki Frontale Ativo 89 / 109 40% 1 05.04.2028 -
Óscar Soto Team Wellington Ativo 84 / 71 40% 1 03.04.2028 -
Kléber Carranza Vegalta Sendai Ativo 107 / 68 40% 2 01.04.2028 -
Ryan Kalms Melbourne City Ativo 89 / 89 40% 9 31.03.2028 -
Kosta Nelson WaiBOP United Ativo 70 / 69 40% 1 31.03.2028 -
Razak Abdullah Sydney FC Ativo 78 / 82 40% 1 29.03.2028 -
Ibrahim Adel Sydney FC Ativo 90 / 98 40% 1 29.03.2028 -
Mxolisi Bhengu Kokand 1912 Ativo 59 / 70 40% 2 26.03.2028 -
Habibi Jusuf Borneo Ativo 60 / 87 40% 6 25.03.2028 -
Bautista Alonso Omiya Ardija Ativo 65 / 99 40% 2 22.03.2028 -
Ryan Barbarouses Canterbury United Ativo 65 / 72 40% 5 22.03.2028 -
Gavin Kwan Adsit Borneo Ativo 78 / 65 40% 9 20.03.2028 -
Randy Bakari Persebaya Ativo 73 / 69 40% 3 18.03.2028 -
César Ayón Brisbane Roar Ativo 89 / 77 40% 1 17.03.2028 -
Lucas Scicluna Perth Glory Ativo 86 / 92 40% 9 15.03.2028 -
Michael Garbett Hawke's Bay United Ativo 76 / 63 40% 1 14.03.2028 -
Oliver Dragićević Melbourne Victory Ativo 90 / 94 40% 3 06.03.2028 -
Lucas Abarca Ba Ativo 88 / 96 40% 1 01.03.2028 -
Muslimbek Habibullayev Navbahor Ativo 71 / 79 40% 6 28.02.2028 -
Mirjalol Jumayev Shortan Ativo 72 / 70 40% 6 28.02.2028 -
Sanzhar Kemelbek Taraz Ativo 84 / 102 40% 2 24.02.2028 -
Andro Giorgadze Kokand 1912 Ativo 85 / 109 40% 1 23.02.2028 -
Grigol Chabradze Qizilqum Ativo 71 / 73 40% 5 22.02.2028 -
Shahzod Turopov Qizilqum Ativo 95 / 69 40% 4 21.02.2028 -
Ravid Olezki Hapoel Tel Aviv Ativo 68 / 72 40% 1 18.02.2028 -
Darold Kakasi Ba Ativo 68 / 44 40% 8 17.02.2028 -
Ibrohim G'anixonov Mashal Ativo 90 / 85 40% 3 16.02.2028 -
Niv Tubul Hapoel Kfar Saba Ativo 93 / 81 40% 5 15.02.2028 -
Callan Elliot Auckland FC Ativo 120 / 98 40% 1 13.02.2028 -
Zach Lisolajski Melbourne City Ativo 86 / 102 40% 10 12.02.2028 -
Abdulaziz Al-Hadhood Okzhetpes Ativo 60 / 71 40% 4 10.02.2028 -
Ali Auglah Central Coast Mariners Ativo 97 / 104 40% 1 10.02.2028 -
Feby Eka Putra Persis Ativo 78 / 82 40% 1 06.02.2028 -
Daichi Suzuki Sagan Tosu Ativo 71 / 101 40% 14 05.02.2028 -
Emin Duraković Brisbane Roar Ativo 101 / 109 40% 1 05.02.2028 -
Oussama Fatmi Lautoka Ativo 85 / 69 40% 12 02.02.2028 -
Mark Isozaki Omiya Ardija Ativo 79 / 104 40% 7 02.02.2028 -
Ilham Udin Armayn PSBS Biak Ativo 73 / 92 40% 9 01.02.2028 -
Alex Nunes Newcastle Jets Ativo 81 / 97 40% 4 30.01.2028 -
Jefferson Persis Ativo 93 / 79 40% 4 30.01.2028 -
Harrison Shillington Melbourne Victory Ativo 81 / 71 40% 5 29.01.2028 -
Yan Shicot Beitar Jerusalem Ativo 83 / 55 40% 6 27.01.2028 -
Akmal Nematov Obod Ativo 72 / 92 40% 6 27.01.2028 -
Toshikazu Teruuchi Urawa Reds Ativo 91 / 107 40% 11 17.01.2028 -
Sandro Embaló PSBS Biak Ativo 75 / 89 40% 4 13.01.2028 -
Tin Martić Semen Padang Ativo 97 / 115 40% 1 12.01.2028 -
Oran Shoval Beitar Jerusalem Ativo 79 / 88 40% 1 09.01.2028 -
Matt Dench Perth Glory Ativo 107 / 110 40% 8 02.01.2028 -
Ratu Halstead Nadi Ativo 57 / 41 51% 1 02.01.2028 -
Orlando Thorpe Nasaf Ativo 71 / 88 40% 1 01.01.2028 -
Tomás Olivarez Newcastle Jets Ativo 102 / 86 40% 1 30.12.2027 -
Oliver Lavale Sydney FC Ativo 92 / 98 40% 1 28.12.2027 -
Qobylandy Kamariden Okzhetpes Ativo 56 / 55 40% 1 25.12.2027 -
Jeremy Foo Auckland City Ativo 74 / 76 40% 3 23.12.2027 -
Sahar Hershkovich Bnei Yehuda Ativo 83 / 82 40% 3 20.12.2027 -
Kou Gotou Shakhter Ativo 94 / 106 40% 6 01.12.2027 -
Sardorbek Saidov Shortan Ativo 90 / 74 40% 6 15.11.2027 -
Kishan Sami Ba Ativo 81 / 53 40% 9 11.11.2027 -
Saar Schwartz Hapoel Acre Ativo 55 / 57 40% 5 04.11.2027 -
Iqboljon Malikjonov Kokand 1912 Ativo 99 / 99 40% 2 30.10.2027 -
Fabian Talladira Adelaide United Ativo 95 / 103 40% 11 29.10.2027 -
Ginanjar Wahyu Bhayangkara Presisi Ativo 58 / 43 40% 2 18.10.2027 -
Yuval Kretzo Maccabi Petach Tikva Ativo 84 / 109 40% 3 29.09.2027 -
Maicon Silva Semen Padang Ativo 56 / 63 40% 4 21.09.2027 -
Tim Stamatelopoulos Canterbury United Ativo 72 / 79 40% 2 19.09.2027 -
Wonderson Yakubu Hapoel Raanana Ativo 94 / 106 40% 9 02.09.2027 -
Nicolas Riveros Maccabi Petach Tikva Ativo 90 / 81 40% 2 29.07.2027 -
Sitiveni Rakai Labasa Ativo 49 / 72 40% 3 25.07.2027 -
Deklan Wood Waitakere United Ativo 71 / 56 40% 1 15.07.2027 -
Riley Dalziell Auckland FC Ativo 84 / 102 40% 1 06.07.2027 -
Tevita Waranaivalu Rewa Ativo 71 / 64 40% 1 12.06.2027 -
Ricky Kambuaya Dewa United Ativo 102 / 60 40% 1 04.06.2027 -
Turendran Kumar Ativo 37 / 53 51% 1 01.06.2027 Observar
Juni Antara Bhayangkara Presisi Ativo 79 / 104 40% 2 29.05.2027 -
Manuel Aguilar Melbourne City Ativo 75 / 90 40% 1 26.05.2027 -
Leonardo Morales Jubilo Iwata Ativo 71 / 83 40% 1 11.05.2027 -
Josh Damevski Navua Ativo 70 / 53 40% 1 05.05.2027 -
Harel Goldenberg Hapoel Kiryat Shmona Ativo 77 / 97 40% 2 04.05.2027 -
Setareki Hughes Rewa Ativo 61 / 79 40% 2 03.05.2027 -
Diego García Adelaide United Ativo 68 / 73 40% 1 27.04.2027 -
Keita Fukui Omiya Ardija Ativo 65 / 60 40% 1 27.04.2027 -
Beni Feldman Maccabi Netanya Ativo 86 / 67 40% 1 17.04.2027 -
Pablo Martínez Brisbane Roar Ativo 72 / 61 40% 1 05.04.2027 -
Azamat Erkinbek Taraz Ativo 69 / 76 40% 1 31.03.2027 -
Mansur Dil'murat Shakhter Ativo 64 / 55 40% 1 24.03.2027 -
Walter Portillo Wellington Phoenix Ativo 63 / 69 40% 1 23.03.2027 -
Agustín Orofino Bhayangkara Presisi Ativo 49 / 89 40% 1 18.03.2027 -
Maximiliano de los Santos Brisbane Roar Ativo 80 / 85 40% 1 18.03.2027 -
Dylan Argüello Bnei Sakhnin Ativo 60 / 58 40% 1 06.01.2027 -
Beniamino Swamy Nadroga Ativo 44 / 66 48% 1 02.01.2027 -
Dostonbek Tursunov Rewa Ativo 46 / 53 40% 1 01.01.2027 -
Rian Islomov AGMK Ativo 62 / 63 40% 1 18.08.2026 -
Christopher Wasasala Labasa Ativo 61 / 58 40% 1 09.08.2026 -
Alper Özdemi̇r Kokand 1912 Ativo 48 / 85 40% 1 03.08.2026 -
Lucas Mauragis Central Coast Mariners Ativo 91 / 114 40% 1 01.08.2026 -